Terminal Aerodrome Forecast
Issued by NWS

Home | Current Version | Previous Version | Text Only | Print | Product List | Glossary On
Versions: 1 2 3 4 5 6 7 8 9 10 11 12 13 14 15
000
FTUS44 KCRP 031128
TAFALI
TAF
KALI 031128Z 0312/0412 04007KT 6SM -RA BR BKN008 OVC015
      TEMPO 0312/0314 4SM SHRA BR SCT005 OVC015
     FM031600 17010KT P6SM -RA BKN015 OVC250
     FM032000 04007KT 6SM SHRA BR BKN025 OVC100
      TEMPO 0321/0401 VRB15G25KT 3SM +TSRA BR OVC025CB
     FM040200 05007KT P6SM -TSRA BKN005CB OVC013=

USA.gov is the U.S. government's official web portal to all federal, state and local government web resources and services.